Clarksburg, Indiana
Current Conditions -  °F | °C
As of 12:53 AM on Thursday 29 Jan 2015 (Local Time) from KGEZ Reporting Station
Clear Clear  
Wind Chill: 25°   Ceiling: Unl
Heat Index: 35°   Visibility: 10mi
Dew Point: 22°   Wind: 16mph
Humidity: 59%   Direction: 160°SSE
Pressure: 30"   Gusts: NA
Location:  39.43°N, 85.35°W
Report Text: KGEZ 290553Z AUTO 16014KT 10SM CLR 02/M06 A3000 RMK AO2 SLP167 T00171056 10017 20006 58027
Loading
Personal Weather Stations






























Interactive Weather Map New forecast layout! Learn more

10-Day Weather Forecast

Advertisements
Track Severe Weather on mobile